Time;durP1;ratioP1;P1;durP2;ratioP2;P2;SDS_P1;SDS_P2;PMS_P1;PMS_P2;Temp;Humidity;BMP_temperature;BMP_pressure;BME280_temperature;BME280_humidity;BME280_pressure;Samples;Min_cycle;Max_cycle;Signal;HPM_P1;HPM_P2
2021/04/12 00:00:00;;;;;;;2.78;0.63;;;;;;;3.08;74.86;101720.84;10246309;28;20080;-66
2021/04/12 00:05:20;;;;;;;4.28;1.05;;;;;;;3.17;74.80;101724.00;10253696;28;20128;-66
2021/04/12 00:10:40;;;;;;;7.22;1.00;;;;;;;3.10;75.53;101729.53;10249436;28;20088;-66
2021/04/12 00:15:53;;;;;;;9.60;1.20;;;;;;;3.07;75.49;101746.25;10245412;28;20049;-66
2021/04/12 00:20:55;;;;;;;5.32;0.88;;;;;;;3.14;75.13;101746.91;10251098;28;20483;-66
2021/04/12 00:25:59;;;;;;;6.20;0.90;;;;;;;3.07;74.81;101746.25;10246647;28;20759;-67
2021/04/12 00:31:21;;;;;;;5.00;0.68;;;;;;;3.08;75.15;101747.88;10254693;28;20085;-67
2021/04/12 00:36:23;;;;;;;5.97;0.63;;;;;;;2.89;74.75;101759.97;10249133;28;20777;-66
2021/04/12 00:42:02;;;;;;;5.63;1.00;;;;;;;2.95;74.96;101759.00;10248651;28;20068;-66
2021/04/12 00:47:35;;;;;;;4.03;0.70;;;;;;;2.89;75.36;101770.75;10256694;28;20041;-66
2021/04/12 00:52:50;;;;;;;3.88;0.73;;;;;;;2.82;75.34;101764.69;10246990;28;20064;-66
2021/04/12 00:57:56;;;;;;;;;;;;;;;2.76;75.90;101765.63;10265769;28;20513;-66
2021/04/12 01:08:33;;;;;;;4.05;0.82;;;;;;;2.53;77.66;101767.34;10820123;23;20068;-68
2021/04/12 01:13:52;;;;;;;4.53;1.00;;;;;;;2.50;76.67;101773.22;10042565;28;20043;-67
2021/04/12 01:19:22;;;;;;;3.35;0.85;;;;;;;2.62;76.51;101771.31;10011405;29;20135;-67
2021/04/12 01:24:30;;;;;;;8.25;1.00;;;;;;;2.65;76.55;101775.44;10000687;29;20049;-67
2021/04/12 01:29:45;;;;;;;5.75;0.98;;;;;;;2.62;77.08;101782.13;10003321;29;20532;-67
2021/04/12 01:35:00;;;;;;;4.60;0.60;;;;;;;2.68;76.08;101797.34;10002578;29;20140;-66
2021/04/12 01:40:17;;;;;;;6.43;0.85;;;;;;;2.68;76.18;101800.06;9998491;29;20572;-68
2021/04/12 01:45:19;;;;;;;3.92;0.63;;;;;;;2.63;76.31;101805.34;9997834;29;20048;-65
2021/04/12 01:50:34;;;;;;;3.55;0.85;;;;;;;2.62;76.73;101814.53;10015552;29;20497;-66
2021/04/12 01:55:53;;;;;;;5.18;1.13;;;;;;;2.49;77.37;101837.19;9999204;29;20147;-67
2021/04/12 02:00:58;;;;;;;12.35;2.15;;;;;;;2.50;77.56;101838.00;10002739;29;20084;-67
2021/04/12 02:06:08;;;;;;;6.90;1.30;;;;;;;2.48;77.44;101850.91;10004185;29;20057;-67
2021/04/12 02:11:13;;;;;;;4.57;0.90;;;;;;;2.41;78.19;101855.63;9990645;29;20067;-68
2021/04/12 02:16:27;;;;;;;5.35;1.27;;;;;;;2.44;77.69;101855.16;9997819;29;20091;-66
2021/04/12 02:21:32;;;;;;;5.80;1.33;;;;;;;2.43;77.41;101858.91;10000721;29;20067;-66
2021/04/12 02:26:59;;;;;;;7.82;1.10;;;;;;;2.42;77.16;101857.28;10001834;29;20078;-68
2021/04/12 02:32:23;;;;;;;4.35;1.05;;;;;;;2.37;77.79;101865.22;9992766;29;20100;-64
2021/04/12 02:37:42;;;;;;;8.37;1.23;;;;;;;2.32;77.47;101865.94;9997453;29;20048;-64
2021/04/12 02:43:06;;;;;;;6.97;1.13;;;;;;;2.28;77.58;101862.91;9990528;29;20135;-67
2021/04/12 02:48:35;;;;;;;6.78;0.70;;;;;;;2.18;77.60;101862.66;10002109;29;20434;-68
2021/04/12 02:53:52;;;;;;;6.78;1.85;;;;;;;2.16;77.48;101870.16;9994325;29;20802;-68
2021/04/12 02:58:57;;;;;;;4.13;0.90;;;;;;;2.26;77.48;101869.59;10005455;29;20461;-67
2021/04/12 03:04:46;;;;;;;9.30;0.90;;;;;;;2.19;76.92;101877.78;9997248;29;20510;-68
2021/04/12 03:09:59;;;;;;;6.10;1.27;;;;;;;2.07;77.31;101882.34;9989775;29;20274;-66
2021/04/12 03:15:13;;;;;;;9.82;1.25;;;;;;;2.09;77.54;101882.94;9987725;29;20505;-66
2021/04/12 03:20:28;;;;;;;8.43;1.02;;;;;;;2.10;78.09;101881.88;9999218;29;20044;-67
2021/04/12 03:25:33;;;;;;;7.28;0.95;;;;;;;2.01;78.57;101894.06;9996320;29;20079;-63
2021/04/12 03:30:29;;;;;;;8.13;1.13;;;;;;;1.97;78.29;101904.47;9995596;29;20052;-64
2021/04/12 03:35:56;;;;;;;9.48;0.80;;;;;;;1.78;78.91;101911.00;9989392;29;20047;-64
2021/04/12 03:41:14;;;;;;;9.10;1.35;;;;;;;1.91;78.70;101920.78;9990947;29;20052;-67
2021/04/12 03:46:27;;;;;;;8.55;2.30;;;;;;;1.80;78.63;101925.91;9998335;29;20103;-66
2021/04/12 03:51:43;;;;;;;7.97;1.00;;;;;;;1.83;78.06;101936.25;9989619;29;20083;-67
2021/04/12 03:57:18;;;;;;;8.77;0.95;;;;;;;1.91;78.13;101932.41;9991736;29;20567;-63
2021/04/12 04:02:39;;;;;;;7.40;1.17;;;;;;;1.79;78.24;101928.84;9987035;29;20115;-64
2021/04/12 04:08:00;;;;;;;6.97;1.23;;;;;;;1.72;78.61;101933.47;10002881;29;20051;-68
2021/04/12 04:13:24;;;;;;;10.15;2.55;;;;;;;1.78;78.70;101938.78;9981413;29;20080;-68
2021/04/12 04:18:46;;;;;;;7.27;1.40;;;;;;;1.78;78.16;101936.09;9989785;29;20056;-67
2021/04/12 04:24:18;;;;;;;7.47;1.50;;;;;;;1.64;78.90;101937.34;9989191;29;21068;-68
2021/04/12 04:29:17;;;;;;;7.47;2.25;;;;;;;1.69;78.44;101934.75;10000633;29;20056;-67
2021/04/12 04:34:22;;;;;;;8.30;1.92;;;;;;;1.68;78.24;101943.91;10000900;29;20752;-69
2021/04/12 04:39:42;;;;;;;8.95;1.70;;;;;;;1.76;78.39;101948.97;10003872;29;20149;-69
2021/04/12 04:45:06;;;;;;;8.50;1.73;;;;;;;1.79;77.90;101942.34;10015739;29;20052;-68
2021/04/12 04:50:29;;;;;;;7.93;2.10;;;;;;;1.72;78.14;101945.13;10011984;29;20851;-67
2021/04/12 04:55:51;;;;;;;9.07;2.25;;;;;;;1.80;77.68;101957.44;10010915;29;20115;-69
2021/04/12 05:01:03;;;;;;;21.98;2.10;;;;;;;1.85;76.87;101969.19;10009327;29;20053;-63
2021/04/12 05:06:09;;;;;;;9.40;2.53;;;;;;;1.82;77.22;101977.75;9995166;29;20052;-69
2021/04/12 05:11:46;;;;;;;12.35;2.22;;;;;;;2.01;76.39;101969.59;10006326;29;20083;-67
2021/04/12 05:16:55;;;;;;;7.10;2.40;;;;;;;2.09;75.73;101982.78;9983774;29;20055;-69
2021/04/12 05:21:58;;;;;;;9.20;2.00;;;;;;;2.10;75.69;101984.41;10011102;29;20048;-67
2021/04/12 05:27:06;;;;;;;7.93;1.90;;;;;;;2.26;75.25;101988.31;9995757;29;20056;-68
2021/04/12 05:32:21;;;;;;;9.60;2.00;;;;;;;2.30;74.80;102001.13;9991979;29;20067;-69
2021/04/12 05:38:02;;;;;;;12.43;2.58;;;;;;;2.43;74.91;102010.88;10004480;29;20052;-68
2021/04/12 05:43:39;;;;;;;10.68;2.40;;;;;;;2.49;74.92;102025.34;10004122;29;20048;-68
2021/04/12 05:49:03;;;;;;;11.93;2.47;;;;;;;2.61;74.88;102028.88;10007360;29;20111;-70
2021/04/12 05:54:24;;;;;;;7.00;1.90;;;;;;;2.74;74.50;102028.69;10007413;29;20063;-67
2021/04/12 05:59:35;;;;;;;8.75;2.20;;;;;;;2.88;74.44;102033.88;10003291;29;20086;-67
2021/04/12 06:04:50;;;;;;;9.80;2.83;;;;;;;2.96;74.74;102030.81;10006983;29;20058;-68
2021/04/12 06:10:16;;;;;;;6.32;2.20;;;;;;;3.06;73.74;102041.84;9999815;29;20087;-66
2021/04/12 06:15:49;;;;;;;10.43;2.33;;;;;;;3.02;74.30;102046.09;10009986;29;20488;-65
2021/04/12 06:21:25;;;;;;;11.98;2.45;;;;;;;3.02;74.07;102056.91;10027217;29;20047;-66
2021/04/12 06:33:39;;;;;;;8.88;2.15;;;;;;;2.80;74.62;102064.72;10020103;29;20044;-66
2021/04/12 06:39:17;;;;;;;9.30;2.08;;;;;;;2.95;75.35;102083.22;10053478;28;20052;-67
2021/04/12 06:45:16;;;;;;;9.18;2.03;;;;;;;3.04;74.39;102081.81;10054451;28;20072;-64
2021/04/12 06:50:56;;;;;;;15.50;2.63;;;;;;;3.02;74.15;102100.13;10051016;28;20032;-64
2021/04/12 06:55:55;;;;;;;10.75;2.17;;;;;;;3.16;73.61;102096.16;10022113;28;20095;-65
2021/04/12 07:00:58;;;;;;;12.10;2.10;;;;;;;3.19;73.62;102110.25;10055550;28;20063;-64
2021/04/12 07:06:30;;;;;;;15.02;1.92;;;;;;;3.29;73.31;102105.06;10037574;29;20100;-64
2021/04/12 07:11:35;;;;;;;13.10;2.63;;;;;;;3.32;72.83;102097.31;10011046;29;20076;-66
2021/04/12 07:16:40;;;;;;;10.15;1.98;;;;;;;3.35;73.08;102112.25;10058927;28;20044;-66
2021/04/12 07:21:45;;;;;;;11.07;2.03;;;;;;;3.46;72.68;102116.00;10042969;28;20048;-64
2021/04/12 07:27:00;;;;;;;6.70;2.10;;;;;;;3.52;72.87;102121.28;10064461;28;20052;-64
2021/04/12 07:32:00;;;;;;;7.97;1.73;;;;;;;3.55;72.79;102131.66;10057543;28;20068;-65
2021/04/12 07:37:34;;;;;;;10.15;2.17;;;;;;;3.65;72.14;102131.06;10042638;28;20047;-63
2021/04/12 07:43:05;;;;;;;13.15;2.45;;;;;;;3.79;71.86;102142.44;10052543;28;20036;-64
2021/04/12 07:48:16;;;;;;;8.15;1.20;;;;;;;3.89;69.95;102145.34;10045903;28;20044;-72
2021/04/12 07:53:51;;;;;;;4.30;1.30;;;;;;;4.16;68.76;102147.56;10032786;29;20048;-64
2021/04/12 07:59:17;;;;;;;5.50;1.10;;;;;;;4.31;67.70;102157.84;10037615;28;20079;-64
2021/04/12 08:05:11;;;;;;;4.30;1.15;;;;;;;4.70;66.31;102156.16;10037218;29;20056;-66
2021/04/12 08:10:42;;;;;;;;;;;;;;;4.57;65.03;102175.41;9987706;28;20040;-65
2021/04/12 08:15:43;;;;;;;8.52;1.38;;;;;;;4.58;64.71;102177.91;10060114;28;19911;-64
2021/04/12 08:21:36;;;;;;;7.18;1.35;;;;;;;4.83;64.86;102184.88;10042116;28;20044;-64
2021/04/12 08:26:55;;;;;;;9.75;1.90;;;;;;;4.75;63.67;102196.91;9996156;28;20048;-64
2021/04/12 08:32:56;;;;;;;4.07;0.95;;;;;;;4.83;62.78;102191.09;10044544;28;20072;-65
2021/04/12 08:38:28;;;;;;;6.60;1.00;;;;;;;5.07;62.52;102201.81;10028560;29;20091;-65
2021/04/12 08:43:45;;;;;;;7.88;1.05;;;;;;;5.31;60.08;102207.09;9980808;29;20063;-66
2021/04/12 08:48:52;;;;;;;10.90;1.40;;;;;;;5.68;60.07;102205.53;9999408;29;20096;-67
2021/04/12 08:54:06;;;;;;;9.60;2.22;;;;;;;5.86;57.95;102209.03;9988969;29;20511;-67
2021/04/12 08:59:28;;;;;;;5.35;1.15;;;;;;;5.53;57.71;102229.72;9984678;29;20849;-65
2021/04/12 09:04:51;;;;;;;6.45;1.02;;;;;;;5.98;57.35;102217.94;9983038;29;20068;-67
2021/04/12 09:09:56;;;;;;;4.45;0.88;;;;;;;6.02;54.13;102213.66;9988992;29;20040;-68
2021/04/12 09:15:16;;;;;;;4.85;0.85;;;;;;;6.41;52.95;102221.78;10004452;29;20071;-69
2021/04/12 09:20:23;;;;;;;4.20;0.98;;;;;;;5.94;55.28;102219.53;9998455;29;20050;-68
2021/04/12 09:26:07;;;;;;;5.35;0.95;;;;;;;6.05;52.55;102240.28;9993089;29;20098;-68
2021/04/12 09:31:15;;;;;;;5.38;0.75;;;;;;;6.48;51.21;102233.25;9990642;29;20107;-67
2021/04/12 09:36:38;;;;;;;4.32;0.63;;;;;;;6.66;49.75;102234.00;10009471;29;20134;-67
2021/04/12 09:41:58;;;;;;;4.85;0.88;;;;;;;7.09;50.78;102243.16;10002589;29;20067;-65
2021/04/12 09:47:13;;;;;;;7.72;1.13;;;;;;;6.60;53.41;102251.34;9995679;29;20503;-68
2021/04/12 09:52:37;;;;;;;8.60;1.20;;;;;;;7.40;50.30;102251.63;9983977;29;20072;-68
2021/04/12 09:57:58;;;;;;;6.38;1.08;;;;;;;8.29;47.40;102252.78;9991732;29;20460;-67
2021/04/12 10:02:54;;;;;;;5.65;0.60;;;;;;;7.73;47.40;102254.06;9993504;29;20059;-68
2021/04/12 10:07:55;;;;;;;4.05;0.82;;;;;;;7.46;49.05;102258.75;9978113;29;20438;-67
2021/04/12 10:13:26;;;;;;;4.43;1.05;;;;;;;7.78;49.37;102251.38;9994325;29;20059;-68
2021/04/12 10:18:42;;;;;;;7.10;1.67;;;;;;;9.14;44.24;102260.72;9979122;29;20052;-66
2021/04/12 10:23:42;;;;;;;4.05;0.57;;;;;;;9.00;43.38;102263.97;9987598;29;20462;-68
2021/04/12 10:29:11;;;;;;;4.85;0.70;;;;;;;8.99;43.08;102273.25;9986827;29;20111;-66
2021/04/12 10:34:17;;;;;;;4.45;0.80;;;;;;;9.79;42.03;102250.91;9980152;29;20084;-66
2021/04/12 10:39:47;;;;;;;5.88;0.90;;;;;;;10.54;39.91;102255.69;9990405;29;20135;-68
2021/04/12 10:45:02;;;;;;;8.05;0.80;;;;;;;10.59;38.39;102247.47;9985696;29;20056;-68
2021/04/12 10:50:25;;;;;;;6.35;0.80;;;;;;;10.30;39.57;102256.31;9971866;29;20036;-67
2021/04/12 10:55:42;;;;;;;4.63;0.95;;;;;;;8.60;42.48;102262.75;9973582;29;20048;-67
2021/04/12 11:01:06;;;;;;;2.75;0.60;;;;;;;9.68;47.16;102276.63;9989387;29;20099;-66
2021/04/12 11:06:24;;;;;;;4.10;0.53;;;;;;;7.70;53.11;102303.59;9983493;29;20060;-67
2021/04/12 11:11:26;;;;;;;2.17;0.65;;;;;;;6.55;58.18;102309.16;9985735;29;20045;-68
2021/04/12 11:16:40;;;;;;;2.83;0.70;;;;;;;6.18;61.34;102325.22;9990415;29;20052;-67
2021/04/12 11:22:00;;;;;;;3.42;0.60;;;;;;;5.64;63.12;102336.50;9989338;29;20078;-65
2021/04/12 11:27:27;;;;;;;3.95;0.50;;;;;;;4.91;65.71;102321.88;9992745;29;20103;-66
2021/04/12 11:32:36;;;;;;;5.60;0.65;;;;;;;4.88;65.49;102316.94;9987613;29;20110;-65
2021/04/12 11:37:47;;;;;;;5.47;0.88;;;;;;;5.25;65.60;102323.63;9992884;29;20139;-67
2021/04/12 11:42:53;;;;;;;6.07;0.80;;;;;;;5.44;65.42;102337.00;9990207;29;20044;-65
2021/04/12 11:47:53;;;;;;;3.67;1.42;;;;;;;5.65;66.17;102333.56;9989443;29;20135;-67
2021/04/12 11:53:12;;;;;;;7.80;1.73;;;;;;;5.77;66.23;102327.25;10002646;29;20052;-67
2021/04/12 11:58:25;;;;;;;3.38;1.10;;;;;;;6.65;64.20;102324.78;9980417;29;20072;-68
2021/04/12 12:03:40;;;;;;;5.95;0.88;;;;;;;7.37;59.29;102313.63;9990296;29;20055;-66
2021/04/12 12:09:03;;;;;;;3.10;0.80;;;;;;;9.04;58.20;102308.72;9993334;29;20066;-67
2021/04/12 12:14:22;;;;;;;2.67;0.57;;;;;;;7.71;57.59;102315.31;9980850;29;20047;-65
2021/04/12 12:19:48;;;;;;;4.20;1.00;;;;;;;7.01;58.00;102322.50;9989867;29;20426;-67
2021/04/12 12:24:53;;;;;;;4.43;1.00;;;;;;;7.63;60.00;102313.88;9994126;29;20044;-65
2021/04/12 12:29:54;;;;;;;6.07;1.00;;;;;;;9.00;56.95;102310.34;9996269;29;20044;-66
2021/04/12 12:34:56;;;;;;;2.38;0.73;;;;;;;8.95;54.26;102304.88;9988481;29;20143;-68
2021/04/12 12:39:59;;;;;;;2.67;0.93;;;;;;;9.77;52.34;102302.28;10004855;29;20048;-66
2021/04/12 12:45:07;;;;;;;3.33;0.88;;;;;;;9.43;50.86;102297.34;10004777;29;20688;-67
2021/04/12 12:50:11;;;;;;;3.08;0.60;;;;;;;10.90;51.06;102280.13;9994693;29;20131;-65
2021/04/12 12:55:19;;;;;;;6.50;0.90;;;;;;;10.40;48.10;102287.47;10002878;29;20140;-67
2021/04/12 13:00:33;;;;;;;3.63;0.95;;;;;;;9.45;48.87;102289.72;9994411;29;20070;-67
2021/04/12 13:05:33;;;;;;;4.57;0.93;;;;;;;8.53;52.05;102297.63;9998350;29;20055;-66
2021/04/12 13:10:29;;;;;;;6.57;1.52;;;;;;;8.70;50.74;102288.44;10001278;29;20043;-66
2021/04/12 13:15:38;;;;;;;5.63;1.35;;;;;;;8.46;51.05;102304.41;9993580;29;20506;-68
2021/04/12 13:20:46;;;;;;;5.63;1.15;;;;;;;8.54;50.55;102302.00;9999134;29;20055;-67
2021/04/12 13:25:45;;;;;;;5.82;0.80;;;;;;;9.27;40.43;102298.41;9983382;29;20056;-64
2021/04/12 13:30:49;;;;;;;5.97;1.77;;;;;;;10.34;38.81;102277.63;9994356;29;20705;-66
2021/04/12 13:35:45;;;;;;;4.80;1.10;;;;;;;11.14;35.84;102278.34;9996910;29;20044;-69
2021/04/12 13:40:49;;;;;;;3.80;0.88;;;;;;;11.72;35.91;102277.66;10004294;29;20083;-67
2021/04/12 13:45:48;;;;;;;5.15;0.95;;;;;;;11.82;34.14;102273.19;9988834;29;20938;-67
2021/04/12 13:51:06;;;;;;;4.15;0.73;;;;;;;11.64;32.18;102271.97;9986730;29;20166;-65
2021/04/12 13:56:12;;;;;;;3.13;0.60;;;;;;;11.10;33.53;102258.13;9990096;29;20140;-68
2021/04/12 14:01:15;;;;;;;5.03;0.70;;;;;;;10.15;35.14;102270.00;9992300;29;20100;-67
2021/04/12 14:06:22;;;;;;;1.40;0.50;;;;;;;10.21;34.22;102266.16;9989456;29;20048;-65
2021/04/12 14:11:27;;;;;;;5.82;0.80;;;;;;;10.05;34.57;102264.56;9997250;29;20047;-67
2021/04/12 14:16:27;;;;;;;3.75;0.70;;;;;;;9.63;36.94;102284.78;9990698;29;20146;-65
2021/04/12 14:21:30;;;;;;;5.03;0.98;;;;;;;10.14;39.74;102278.47;9998624;29;20108;-64
2021/04/12 14:26:31;;;;;;;3.67;0.88;;;;;;;9.42;39.59;102297.63;10004330;29;20056;-63
2021/04/12 14:31:37;;;;;;;3.75;0.77;;;;;;;9.53;41.24;102306.66;10001898;29;20119;-65
2021/04/12 14:36:38;;;;;;;6.85;0.90;;;;;;;8.75;44.14;102302.06;10002567;29;20074;-67
2021/04/12 14:41:51;;;;;;;4.78;1.05;;;;;;;8.56;44.44;102310.75;9988209;29;20050;-62
2021/04/12 14:46:51;;;;;;;5.97;1.02;;;;;;;8.24;45.31;102297.19;9986710;29;20143;-66
2021/04/12 14:52:01;;;;;;;3.88;0.95;;;;;;;8.16;44.88;102293.03;9995447;29;20457;-63
2021/04/12 14:57:06;;;;;;;4.05;0.73;;;;;;;8.28;43.14;102297.47;9991060;29;20080;-64
2021/04/12 15:02:09;;;;;;;2.72;0.60;;;;;;;9.14;38.79;102309.84;10002725;29;20391;-66
2021/04/12 15:07:11;;;;;;;3.33;0.60;;;;;;;9.53;36.88;102317.56;9993277;29;20525;-66
2021/04/12 15:12:22;;;;;;;2.80;0.80;;;;;;;8.89;39.70;102308.69;9981460;29;20108;-65
2021/04/12 15:17:46;;;;;;;2.17;0.68;;;;;;;8.46;41.62;102327.03;10006465;29;20059;-68
2021/04/12 15:22:48;;;;;;;5.75;0.80;;;;;;;9.19;42.16;102348.91;9989285;29;20052;-67
2021/04/12 15:27:53;;;;;;;3.33;0.95;;;;;;;10.00;40.94;102354.72;9990390;29;20051;-67
2021/04/12 15:32:58;;;;;;;3.42;0.77;;;;;;;10.29;38.43;102336.69;9988943;29;20546;-66
2021/04/12 15:38:00;;;;;;;2.05;0.63;;;;;;;9.32;39.46;102344.00;9991659;29;20044;-68
2021/04/12 15:43:05;;;;;;;2.58;0.70;;;;;;;8.44;41.58;102345.56;9998181;29;20388;-69
2021/04/12 15:48:20;;;;;;;3.67;0.60;;;;;;;8.47;42.60;102350.50;10004902;28;20052;-64
2021/04/12 15:53:21;;;;;;;3.47;0.90;;;;;;;8.29;45.83;102361.78;9984193;29;20131;-64
2021/04/12 15:58:24;;;;;;;2.42;0.63;;;;;;;8.37;46.56;102361.28;9989274;29;20055;-65
2021/04/12 16:03:24;;;;;;;3.53;0.80;;;;;;;8.18;47.45;102358.97;9991943;29;20044;-67
2021/04/12 16:08:37;;;;;;;2.53;1.05;;;;;;;8.39;48.12;102353.69;9986239;29;20048;-69
2021/04/12 16:13:39;;;;;;;6.70;2.80;;;;;;;8.57;46.65;102356.00;9992486;29;20084;-66
2021/04/12 16:19:01;;;;;;;4.80;0.70;;;;;;;8.97;42.78;102370.91;9994581;29;20525;-69
2021/04/12 16:24:19;;;;;;;2.38;0.45;;;;;;;9.21;38.45;102365.00;9985269;29;20075;-69
2021/04/12 16:29:31;;;;;;;2.25;0.68;;;;;;;8.60;41.62;102371.81;9989519;29;20084;-69
2021/04/12 16:34:30;;;;;;;3.08;0.80;;;;;;;8.99;40.05;102382.38;10001630;29;20564;-69
2021/04/12 16:39:41;;;;;;;3.22;0.50;;;;;;;10.11;38.60;102386.44;9998401;29;20072;-69
2021/04/12 16:44:47;;;;;;;3.17;0.82;;;;;;;9.23;45.22;102401.03;10000653;29;20036;-68
2021/04/12 16:50:09;;;;;;;4.18;0.85;;;;;;;9.19;45.82;102405.38;10017893;29;20087;-69
2021/04/12 16:55:08;;;;;;;2.83;0.95;;;;;;;9.00;46.29;102415.94;9989630;29;20045;-70
2021/04/12 17:00:30;;;;;;;2.90;0.85;;;;;;;9.44;45.42;102423.75;9993821;29;20048;-70
2021/04/12 17:05:29;;;;;;;2.60;0.80;;;;;;;8.93;45.53;102413.44;9994048;29;20072;-69
2021/04/12 17:10:44;;;;;;;3.47;1.15;;;;;;;8.98;46.05;102416.22;10014213;29;20048;-66
2021/04/12 17:15:57;;;;;;;2.97;0.82;;;;;;;9.21;46.21;102425.03;10018145;29;20058;-69
2021/04/12 17:21:29;;;;;;;5.72;0.60;;;;;;;8.27;47.87;102418.47;10007789;29;20159;-70
2021/04/12 17:26:46;;;;;;;6.20;0.85;;;;;;;7.47;49.79;102434.56;9994444;29;20861;-70
2021/04/12 17:31:48;;;;;;;3.65;1.02;;;;;;;7.50;50.20;102423.19;10007769;29;20098;-67
2021/04/12 17:36:53;;;;;;;2.30;0.60;;;;;;;7.73;49.53;102428.34;9996139;29;20173;-69
2021/04/12 17:41:51;;;;;;;4.03;0.70;;;;;;;7.43;50.27;102426.09;9991731;29;20096;-69
2021/04/12 17:47:02;;;;;;;2.42;0.60;;;;;;;6.97;51.01;102441.84;9996764;29;20051;-71
2021/04/12 17:52:06;;;;;;;5.45;0.77;;;;;;;6.32;52.93;102446.03;10003350;29;20071;-70
2021/04/12 17:57:05;;;;;;;3.60;0.80;;;;;;;6.48;52.79;102445.22;9989042;29;20176;-70
2021/04/12 18:02:04;;;;;;;4.32;0.90;;;;;;;6.51;53.15;102452.03;9994757;29;20040;-69
2021/04/12 18:07:07;;;;;;;2.80;1.05;;;;;;;6.56;53.13;102462.19;10028973;29;20056;-68
2021/04/12 18:12:25;;;;;;;5.83;0.70;;;;;;;6.39;53.73;102457.56;9996576;29;20051;-71
2021/04/12 18:17:32;;;;;;;4.63;1.70;;;;;;;6.20;54.97;102458.88;10029021;29;20136;-71
2021/04/12 18:22:31;;;;;;;5.53;0.85;;;;;;;6.29;56.05;102471.81;9996865;29;21079;-67
2021/04/12 18:27:34;;;;;;;5.78;0.68;;;;;;;6.04;56.11;102488.47;10006820;29;20043;-68
2021/04/12 18:32:35;;;;;;;2.95;0.70;;;;;;;6.10;56.34;102481.22;10011366;29;20044;-68
2021/04/12 18:37:49;;;;;;;5.60;1.20;;;;;;;5.92;57.70;102493.13;10001121;29;20055;-70
2021/04/12 18:42:49;;;;;;;6.00;0.68;;;;;;;5.81;58.38;102504.84;9994379;29;20072;-70
2021/04/12 18:48:17;;;;;;;4.03;0.80;;;;;;;4.91;63.04;102508.91;9986417;29;20059;-71
2021/04/12 18:53:34;;;;;;;5.07;0.80;;;;;;;4.65;64.82;102519.13;10002437;29;20147;-67
2021/04/12 18:58:47;;;;;;;2.40;0.60;;;;;;;4.48;65.46;102529.84;9992883;29;20059;-69
2021/04/12 19:04:00;;;;;;;2.05;0.57;;;;;;;4.74;65.01;102525.03;9991129;29;20119;-66
2021/04/12 19:09:15;;;;;;;3.58;0.82;;;;;;;4.86;64.15;102520.44;9996654;29;20103;-69
2021/04/12 19:14:23;;;;;;;2.97;0.90;;;;;;;4.69;63.99;102525.75;10000057;29;20063;-69
2021/04/12 19:19:38;;;;;;;3.65;0.80;;;;;;;4.33;64.69;102527.53;9986695;29;20047;-69
2021/04/12 19:25:01;;;;;;;2.60;0.60;;;;;;;4.40;64.55;102528.28;10001761;29;20051;-67
2021/04/12 19:30:10;;;;;;;2.70;0.50;;;;;;;4.31;64.75;102532.38;10001001;29;20114;-66
2021/04/12 19:35:27;;;;;;;4.25;1.40;;;;;;;4.32;65.08;102536.75;10012302;29;20658;-67
2021/04/12 19:40:45;;;;;;;3.58;0.70;;;;;;;4.49;65.23;102541.50;9990764;29;20044;-67
2021/04/12 19:46:01;;;;;;;5.05;0.90;;;;;;;4.35;65.77;102536.28;9995036;29;20114;-66
2021/04/12 19:51:10;;;;;;;2.97;0.95;;;;;;;4.48;65.35;102537.13;9984190;29;20052;-68
2021/04/12 19:56:13;;;;;;;7.15;2.03;;;;;;;4.45;65.75;102545.72;9986645;29;20052;-67
2021/04/12 20:01:43;;;;;;;3.90;1.27;;;;;;;4.32;65.70;102536.75;9981263;29;20075;-66
2021/04/12 20:06:48;;;;;;;4.35;0.73;;;;;;;4.27;66.17;102539.31;10000763;29;20138;-67
2021/04/12 20:11:51;;;;;;;3.22;1.20;;;;;;;4.10;67.03;102539.13;9991578;29;20059;-69
2021/04/12 20:16:49;;;;;;;5.43;0.80;;;;;;;4.05;67.81;102530.88;9981516;29;20075;-68
2021/04/12 20:22:02;;;;;;;4.85;0.80;;;;;;;4.04;67.27;102539.22;9990480;29;20417;-69
2021/04/12 20:27:20;;;;;;;4.00;1.08;;;;;;;4.00;67.38;102536.16;9993569;29;20079;-68
2021/04/12 20:32:30;;;;;;;3.20;0.75;;;;;;;3.97;67.38;102534.75;9995050;29;20118;-68
2021/04/12 20:37:42;;;;;;;6.50;2.05;;;;;;;3.99;67.83;102532.63;9997570;29;20479;-68
2021/04/12 20:42:46;;;;;;;4.80;1.55;;;;;;;3.87;67.62;102529.03;9991502;29;20684;-69
2021/04/12 20:48:02;;;;;;;6.00;2.00;;;;;;;3.65;67.36;102536.00;9987521;29;20075;-68
2021/04/12 20:53:13;;;;;;;4.00;1.35;;;;;;;3.64;67.24;102534.31;9990913;29;20577;-68
2021/04/12 20:58:19;;;;;;;6.05;1.65;;;;;;;3.59;67.48;102533.13;9985272;29;20467;-69
2021/04/12 21:03:27;;;;;;;2.65;0.90;;;;;;;3.63;67.09;102538.09;9994639;29;20498;-65
2021/04/12 21:08:30;;;;;;;3.15;1.20;;;;;;;3.51;66.96;102529.91;9998333;29;20143;-67
2021/04/12 21:13:28;;;;;;;3.53;0.90;;;;;;;3.42;67.84;102534.78;10007960;29;20051;-68
2021/04/12 21:18:36;;;;;;;4.65;1.05;;;;;;;3.51;67.35;102549.66;9993295;29;20056;-67
2021/04/12 21:23:43;;;;;;;5.10;1.10;;;;;;;3.31;68.08;102549.03;9996980;29;20053;-68
2021/04/12 21:28:40;;;;;;;4.60;0.80;;;;;;;3.42;67.57;102551.00;9992285;29;20097;-67
2021/04/12 21:33:41;;;;;;;2.53;0.90;;;;;;;3.27;68.09;102545.13;10003169;29;20076;-68
2021/04/12 21:38:40;;;;;;;3.97;0.75;;;;;;;3.34;67.89;102548.59;9994817;29;20044;-67
2021/04/12 21:43:43;;;;;;;3.72;0.85;;;;;;;3.14;69.11;102546.94;9992638;29;20051;-66
2021/04/12 21:48:42;;;;;;;3.92;1.00;;;;;;;3.19;68.89;102548.13;9994757;29;20044;-67
2021/04/12 21:53:51;;;;;;;4.90;0.95;;;;;;;3.09;69.89;102545.97;9992540;29;20039;-68
2021/04/12 21:58:57;;;;;;;3.92;0.85;;;;;;;3.17;69.92;102551.06;10001015;29;20044;-65
2021/04/12 22:04:21;;;;;;;7.20;1.20;;;;;;;3.09;70.39;102565.69;10009084;29;20051;-67
2021/04/12 22:09:32;;;;;;;6.13;1.70;;;;;;;2.94;71.01;102557.91;9994099;29;20072;-67
2021/04/12 22:14:39;;;;;;;4.88;1.65;;;;;;;3.00;71.05;102561.63;10003083;29;20506;-67
2021/04/12 22:19:38;;;;;;;5.20;1.52;;;;;;;3.00;71.13;102550.00;10000346;29;20810;-67
2021/04/12 22:24:58;;;;;;;6.90;1.67;;;;;;;2.65;72.51;102556.72;9997352;29;20097;-67
2021/04/12 22:30:25;;;;;;;4.82;1.48;;;;;;;2.72;72.42;102554.78;9990851;29;20071;-68
2021/04/12 22:36:00;;;;;;;4.22;1.50;;;;;;;2.88;72.12;102564.22;10002655;29;20052;-67
2021/04/12 22:41:27;;;;;;;4.70;1.60;;;;;;;2.61;72.40;102566.28;9997386;29;20059;-67
2021/04/12 22:47:02;;;;;;;3.10;1.15;;;;;;;2.72;72.45;102562.88;9999962;29;20047;-68
2021/04/12 22:51:59;;;;;;;2.97;1.35;;;;;;;2.45;73.43;102574.94;9998218;29;20420;-65
2021/04/12 23:02:39;;;;;;;5.97;1.80;;;;;;;2.48;73.53;102564.53;9988201;29;20451;-67
2021/04/12 23:07:39;;;;;;;4.57;1.70;;;;;;;2.52;73.29;102562.19;10002710;29;20095;-66
2021/04/12 23:12:34;;;;;;;4.20;1.63;;;;;;;2.49;73.65;102570.75;10001082;29;20083;-67
2021/04/12 23:17:31;;;;;;;6.07;2.00;;;;;;;2.53;73.60;102567.41;9993111;29;20051;-66
2021/04/12 23:22:30;;;;;;;6.47;1.63;;;;;;;2.44;73.56;102570.59;9996777;29;20566;-66
2021/04/12 23:27:35;;;;;;;6.28;1.80;;;;;;;2.43;73.94;102571.63;9991961;29;20080;-66
2021/04/12 23:32:33;;;;;;;6.78;1.92;;;;;;;2.25;74.11;102586.69;10000883;29;20826;-65
2021/04/12 23:37:40;;;;;;;7.20;2.00;;;;;;;2.42;73.88;102581.59;9991475;29;20450;-66
2021/04/12 23:42:42;;;;;;;8.13;2.00;;;;;;;2.35;74.42;102575.41;9991719;29;20044;-65
2021/04/12 23:47:54;;;;;;;4.40;1.63;;;;;;;2.47;73.99;102583.63;9988431;29;20079;-66
2021/04/12 23:52:54;;;;;;;9.50;1.85;;;;;;;2.41;74.36;102576.41;9991939;29;21592;-65
2021/04/12 23:57:50;;;;;;;4.60;1.48;;;;;;;2.54;74.15;102573.63;10001859;29;20048;-66
